sensor_id;sensor_type;location;lat;lon;timestamp;P1;durP1;ratioP1;P2;durP2;ratioP2
3653;SDS011;70277;54.302;10.064;2024-01-10T00:02:49;47.42;;;12.55;;
3653;SDS011;70277;54.302;10.064;2024-01-10T00:05:39;55.10;;;12.85;;
3653;SDS011;70277;54.302;10.064;2024-01-10T00:08:23;52.72;;;13.88;;
3653;SDS011;70277;54.302;10.064;2024-01-10T00:11:26;62.13;;;13.18;;
3653;SDS011;70277;54.302;10.064;2024-01-10T00:14:45;45.42;;;14.02;;
3653;SDS011;70277;54.302;10.064;2024-01-10T00:17:46;41.90;;;14.73;;
3653;SDS011;70277;54.302;10.064;2024-01-10T00:21:13;51.88;;;15.63;;
3653;SDS011;70277;54.302;10.064;2024-01-10T00:24:25;33.25;;;12.65;;
3653;SDS011;70277;54.302;10.064;2024-01-10T00:27:22;40.90;;;13.50;;
3653;SDS011;70277;54.302;10.064;2024-01-10T00:29:50;45.97;;;14.15;;
3653;SDS011;70277;54.302;10.064;2024-01-10T00:32:47;42.03;;;13.07;;
3653;SDS011;70277;54.302;10.064;2024-01-10T00:36:20;33.95;;;13.00;;
3653;SDS011;70277;54.302;10.064;2024-01-10T00:39:32;42.10;;;13.27;;
3653;SDS011;70277;54.302;10.064;2024-01-10T00:43:03;41.28;;;14.82;;
3653;SDS011;70277;54.302;10.064;2024-01-10T00:46:32;38.50;;;14.07;;
3653;SDS011;70277;54.302;10.064;2024-01-10T00:49:31;43.03;;;12.45;;
3653;SDS011;70277;54.302;10.064;2024-01-10T00:52:03;29.60;;;11.52;;
3653;SDS011;70277;54.302;10.064;2024-01-10T00:54:37;38.53;;;10.73;;
3653;SDS011;70277;54.302;10.064;2024-01-10T00:57:31;28.08;;;10.43;;
3653;SDS011;70277;54.302;10.064;2024-01-10T01:01:08;38.55;;;9.93;;
3653;SDS011;70277;54.302;10.064;2024-01-10T01:04:22;26.13;;;10.85;;
3653;SDS011;70277;54.302;10.064;2024-01-10T01:07:09;35.78;;;10.45;;
3653;SDS011;70277;54.302;10.064;2024-01-10T01:10:07;26.10;;;9.45;;
3653;SDS011;70277;54.302;10.064;2024-01-10T01:12:48;27.73;;;9.77;;
3653;SDS011;70277;54.302;10.064;2024-01-10T01:16:14;36.97;;;9.13;;
3653;SDS011;70277;54.302;10.064;2024-01-10T01:18:43;26.10;;;9.18;;
3653;SDS011;70277;54.302;10.064;2024-01-10T01:22:28;41.72;;;7.88;;
3653;SDS011;70277;54.302;10.064;2024-01-10T01:25:37;19.30;;;7.35;;
3653;SDS011;70277;54.302;10.064;2024-01-10T01:28:18;36.60;;;9.25;;
3653;SDS011;70277;54.302;10.064;2024-01-10T01:31:25;49.88;;;8.15;;
3653;SDS011;70277;54.302;10.064;2024-01-10T01:34:37;34.88;;;8.05;;
3653;SDS011;70277;54.302;10.064;2024-01-10T01:37:56;24.73;;;7.75;;
3653;SDS011;70277;54.302;10.064;2024-01-10T01:41:42;17.77;;;7.22;;
3653;SDS011;70277;54.302;10.064;2024-01-10T01:44:32;35.38;;;7.30;;
3653;SDS011;70277;54.302;10.064;2024-01-10T01:47:55;32.05;;;7.50;;
3653;SDS011;70277;54.302;10.064;2024-01-10T01:51:08;25.67;;;7.72;;
3653;SDS011;70277;54.302;10.064;2024-01-10T01:55:04;17.15;;;7.90;;
3653;SDS011;70277;54.302;10.064;2024-01-10T01:57:34;20.10;;;7.47;;
3653;SDS011;70277;54.302;10.064;2024-01-10T02:00:15;19.92;;;8.00;;
3653;SDS011;70277;54.302;10.064;2024-01-10T02:02:44;18.13;;;7.40;;
3653;SDS011;70277;54.302;10.064;2024-01-10T02:05:32;22.70;;;7.68;;
3653;SDS011;70277;54.302;10.064;2024-01-10T02:08:46;22.88;;;8.05;;
3653;SDS011;70277;54.302;10.064;2024-01-10T02:12:09;35.15;;;7.78;;
3653;SDS011;70277;54.302;10.064;2024-01-10T02:15:10;29.25;;;8.07;;
3653;SDS011;70277;54.302;10.064;2024-01-10T02:17:50;25.35;;;7.97;;
3653;SDS011;70277;54.302;10.064;2024-01-10T02:21:22;42.78;;;8.30;;
3653;SDS011;70277;54.302;10.064;2024-01-10T02:24:52;22.60;;;8.23;;
3653;SDS011;70277;54.302;10.064;2024-01-10T02:27:34;45.03;;;7.32;;
3653;SDS011;70277;54.302;10.064;2024-01-10T02:30:22;31.90;;;8.95;;
3653;SDS011;70277;54.302;10.064;2024-01-10T02:32:48;32.67;;;7.57;;
3653;SDS011;70277;54.302;10.064;2024-01-10T02:36:13;35.83;;;7.15;;
3653;SDS011;70277;54.302;10.064;2024-01-10T02:39:44;32.42;;;8.35;;
3653;SDS011;70277;54.302;10.064;2024-01-10T02:42:17;21.77;;;8.52;;
3653;SDS011;70277;54.302;10.064;2024-01-10T02:45:26;27.52;;;7.32;;
3653;SDS011;70277;54.302;10.064;2024-01-10T02:48:48;35.05;;;6.57;;
3653;SDS011;70277;54.302;10.064;2024-01-10T02:51:44;17.27;;;6.75;;
3653;SDS011;70277;54.302;10.064;2024-01-10T02:54:46;19.30;;;6.22;;
3653;SDS011;70277;54.302;10.064;2024-01-10T02:58:05;15.95;;;6.20;;
3653;SDS011;70277;54.302;10.064;2024-01-10T03:01:21;28.58;;;6.30;;
3653;SDS011;70277;54.302;10.064;2024-01-10T03:04:44;24.10;;;5.75;;
3653;SDS011;70277;54.302;10.064;2024-01-10T03:07:54;17.88;;;5.93;;
3653;SDS011;70277;54.302;10.064;2024-01-10T03:10:41;39.13;;;6.68;;
3653;SDS011;70277;54.302;10.064;2024-01-10T03:13:36;55.75;;;7.38;;
3653;SDS011;70277;54.302;10.064;2024-01-10T03:17:14;27.73;;;7.53;;
3653;SDS011;70277;54.302;10.064;2024-01-10T03:19:41;27.90;;;8.50;;
3653;SDS011;70277;54.302;10.064;2024-01-10T03:22:30;34.72;;;8.27;;
3653;SDS011;70277;54.302;10.064;2024-01-10T03:25:10;39.08;;;8.57;;
3653;SDS011;70277;54.302;10.064;2024-01-10T03:27:47;51.85;;;9.90;;
3653;SDS011;70277;54.302;10.064;2024-01-10T03:31:16;39.95;;;9.85;;
3653;SDS011;70277;54.302;10.064;2024-01-10T03:34:04;26.98;;;8.52;;
3653;SDS011;70277;54.302;10.064;2024-01-10T03:36:47;34.42;;;10.23;;
3653;SDS011;70277;54.302;10.064;2024-01-10T03:39:39;23.25;;;9.10;;
3653;SDS011;70277;54.302;10.064;2024-01-10T03:42:06;30.52;;;9.30;;
3653;SDS011;70277;54.302;10.064;2024-01-10T03:45:17;46.97;;;9.45;;
3653;SDS011;70277;54.302;10.064;2024-01-10T03:48:01;26.75;;;9.65;;
3653;SDS011;70277;54.302;10.064;2024-01-10T03:51:37;27.13;;;8.98;;
3653;SDS011;70277;54.302;10.064;2024-01-10T03:54:38;32.53;;;10.70;;
3653;SDS011;70277;54.302;10.064;2024-01-10T03:57:12;27.48;;;10.25;;
3653;SDS011;70277;54.302;10.064;2024-01-10T04:00:13;32.08;;;10.00;;
3653;SDS011;70277;54.302;10.064;2024-01-10T04:03:10;33.15;;;9.80;;
3653;SDS011;70277;54.302;10.064;2024-01-10T04:06:43;26.05;;;9.98;;
3653;SDS011;70277;54.302;10.064;2024-01-10T04:09:15;27.50;;;9.85;;
3653;SDS011;70277;54.302;10.064;2024-01-10T04:12:05;35.55;;;11.57;;
3653;SDS011;70277;54.302;10.064;2024-01-10T04:14:40;36.83;;;10.60;;
3653;SDS011;70277;54.302;10.064;2024-01-10T04:18:17;32.40;;;10.30;;
3653;SDS011;70277;54.302;10.064;2024-01-10T04:22:14;30.70;;;10.50;;
3653;SDS011;70277;54.302;10.064;2024-01-10T04:25:10;36.33;;;13.23;;
3653;SDS011;70277;54.302;10.064;2024-01-10T04:27:52;33.58;;;11.38;;
3653;SDS011;70277;54.302;10.064;2024-01-10T04:30:23;33.13;;;11.73;;
3653;SDS011;70277;54.302;10.064;2024-01-10T04:33:03;31.60;;;11.45;;
3653;SDS011;70277;54.302;10.064;2024-01-10T04:35:32;37.17;;;11.52;;
3653;SDS011;70277;54.302;10.064;2024-01-10T04:38:45;34.83;;;10.90;;
3653;SDS011;70277;54.302;10.064;2024-01-10T04:42:13;38.85;;;11.52;;
3653;SDS011;70277;54.302;10.064;2024-01-10T04:45:14;34.88;;;11.73;;
3653;SDS011;70277;54.302;10.064;2024-01-10T04:47:46;36.03;;;11.52;;
3653;SDS011;70277;54.302;10.064;2024-01-10T04:50:13;37.75;;;11.57;;
3653;SDS011;70277;54.302;10.064;2024-01-10T04:52:40;35.97;;;11.38;;
3653;SDS011;70277;54.302;10.064;2024-01-10T04:55:11;46.15;;;12.98;;
3653;SDS011;70277;54.302;10.064;2024-01-10T04:57:47;37.03;;;12.70;;
3653;SDS011;70277;54.302;10.064;2024-01-10T05:00:38;34.05;;;12.52;;
3653;SDS011;70277;54.302;10.064;2024-01-10T05:04:02;36.30;;;11.52;;
3653;SDS011;70277;54.302;10.064;2024-01-10T05:10:09;33.25;;;10.90;;
3653;SDS011;70277;54.302;10.064;2024-01-10T05:13:47;33.65;;;11.45;;
3653;SDS011;70277;54.302;10.064;2024-01-10T05:16:51;33.50;;;10.70;;
3653;SDS011;70277;54.302;10.064;2024-01-10T05:19:53;32.97;;;11.35;;
3653;SDS011;70277;54.302;10.064;2024-01-10T05:22:51;32.90;;;11.55;;
3653;SDS011;70277;54.302;10.064;2024-01-10T05:25:18;32.45;;;11.48;;
3653;SDS011;70277;54.302;10.064;2024-01-10T05:27:44;38.50;;;12.38;;
3653;SDS011;70277;54.302;10.064;2024-01-10T05:30:23;42.78;;;14.65;;
3653;SDS011;70277;54.302;10.064;2024-01-10T05:33:50;39.90;;;11.35;;
3653;SDS011;70277;54.302;10.064;2024-01-10T05:37:14;38.33;;;13.00;;
3653;SDS011;70277;54.302;10.064;2024-01-10T05:39:41;44.08;;;13.23;;
3653;SDS011;70277;54.302;10.064;2024-01-10T05:42:08;35.60;;;12.07;;
3653;SDS011;70277;54.302;10.064;2024-01-10T05:44:48;37.25;;;13.40;;
3653;SDS011;70277;54.302;10.064;2024-01-10T05:47:23;33.78;;;11.70;;
3653;SDS011;70277;54.302;10.064;2024-01-10T05:50:23;33.13;;;12.02;;
3653;SDS011;70277;54.302;10.064;2024-01-10T05:54:15;34.80;;;13.07;;
3653;SDS011;70277;54.302;10.064;2024-01-10T05:57:48;37.55;;;12.68;;
3653;SDS011;70277;54.302;10.064;2024-01-10T06:00:28;39.67;;;12.57;;
3653;SDS011;70277;54.302;10.064;2024-01-10T06:04:06;40.05;;;12.32;;
3653;SDS011;70277;54.302;10.064;2024-01-10T06:07:24;32.72;;;12.60;;
3653;SDS011;70277;54.302;10.064;2024-01-10T06:13:09;31.25;;;11.60;;
3653;SDS011;70277;54.302;10.064;2024-01-10T06:15:44;34.72;;;11.35;;
3653;SDS011;70277;54.302;10.064;2024-01-10T06:18:11;50.15;;;15.88;;
3653;SDS011;70277;54.302;10.064;2024-01-10T06:21:12;42.90;;;14.48;;
3653;SDS011;70277;54.302;10.064;2024-01-10T06:24:07;35.38;;;12.18;;
3653;SDS011;70277;54.302;10.064;2024-01-10T06:26:48;37.80;;;12.18;;
3653;SDS011;70277;54.302;10.064;2024-01-10T06:29:57;38.38;;;12.82;;
3653;SDS011;70277;54.302;10.064;2024-01-10T06:33:30;43.50;;;15.25;;
3653;SDS011;70277;54.302;10.064;2024-01-10T06:36:11;38.55;;;11.43;;
3653;SDS011;70277;54.302;10.064;2024-01-10T06:39:50;38.58;;;11.75;;
3653;SDS011;70277;54.302;10.064;2024-01-10T06:43:38;33.75;;;12.00;;
3653;SDS011;70277;54.302;10.064;2024-01-10T06:47:20;36.88;;;12.30;;
3653;SDS011;70277;54.302;10.064;2024-01-10T06:51:01;39.70;;;10.80;;
3653;SDS011;70277;54.302;10.064;2024-01-10T06:54:04;43.85;;;14.85;;
3653;SDS011;70277;54.302;10.064;2024-01-10T06:56:45;31.13;;;11.23;;
3653;SDS011;70277;54.302;10.064;2024-01-10T06:59:32;48.90;;;18.30;;
3653;SDS011;70277;54.302;10.064;2024-01-10T07:02:15;29.20;;;8.77;;
3653;SDS011;70277;54.302;10.064;2024-01-10T07:05:12;34.92;;;10.85;;
3653;SDS011;70277;54.302;10.064;2024-01-10T07:08:28;30.10;;;9.98;;
3653;SDS011;70277;54.302;10.064;2024-01-10T07:17:01;25.15;;;9.93;;
3653;SDS011;70277;54.302;10.064;2024-01-10T07:19:48;33.15;;;10.65;;
3653;SDS011;70277;54.302;10.064;2024-01-10T07:25:14;31.48;;;9.57;;
3653;SDS011;70277;54.302;10.064;2024-01-10T07:28:27;38.08;;;10.23;;
3653;SDS011;70277;54.302;10.064;2024-01-10T07:31:14;22.65;;;8.98;;
3653;SDS011;70277;54.302;10.064;2024-01-10T07:34:14;33.55;;;8.93;;
3653;SDS011;70277;54.302;10.064;2024-01-10T07:38:05;27.92;;;9.02;;
3653;SDS011;70277;54.302;10.064;2024-01-10T07:40:36;24.98;;;7.85;;
3653;SDS011;70277;54.302;10.064;2024-01-10T07:43:05;19.33;;;7.30;;
3653;SDS011;70277;54.302;10.064;2024-01-10T07:46:09;29.15;;;8.35;;
3653;SDS011;70277;54.302;10.064;2024-01-10T07:48:49;25.90;;;8.07;;
3653;SDS011;70277;54.302;10.064;2024-01-10T07:52:52;25.02;;;7.15;;
3653;SDS011;70277;54.302;10.064;2024-01-10T07:55:34;18.70;;;6.25;;
3653;SDS011;70277;54.302;10.064;2024-01-10T07:58:23;24.77;;;8.32;;
3653;SDS011;70277;54.302;10.064;2024-01-10T08:01:11;18.92;;;7.53;;
3653;SDS011;70277;54.302;10.064;2024-01-10T08:03:51;17.73;;;6.90;;
3653;SDS011;70277;54.302;10.064;2024-01-10T08:06:21;20.83;;;7.25;;
3653;SDS011;70277;54.302;10.064;2024-01-10T08:09:33;20.05;;;7.00;;
3653;SDS011;70277;54.302;10.064;2024-01-10T08:13:16;17.30;;;6.50;;
3653;SDS011;70277;54.302;10.064;2024-01-10T08:16:17;20.88;;;7.25;;
3653;SDS011;70277;54.302;10.064;2024-01-10T08:19:59;23.05;;;7.72;;
3653;SDS011;70277;54.302;10.064;2024-01-10T08:23:11;19.75;;;6.90;;
3653;SDS011;70277;54.302;10.064;2024-01-10T08:29:07;24.58;;;6.68;;
3653;SDS011;70277;54.302;10.064;2024-01-10T08:31:35;17.75;;;7.10;;
3653;SDS011;70277;54.302;10.064;2024-01-10T08:34:29;20.58;;;7.50;;
3653;SDS011;70277;54.302;10.064;2024-01-10T08:37:40;17.17;;;6.47;;
3653;SDS011;70277;54.302;10.064;2024-01-10T08:40:47;24.00;;;7.85;;
3653;SDS011;70277;54.302;10.064;2024-01-10T08:44:16;19.98;;;8.10;;
3653;SDS011;70277;54.302;10.064;2024-01-10T08:46:44;22.02;;;7.07;;
3653;SDS011;70277;54.302;10.064;2024-01-10T08:50:29;20.92;;;8.00;;
3653;SDS011;70277;54.302;10.064;2024-01-10T08:56:04;22.42;;;7.07;;
3653;SDS011;70277;54.302;10.064;2024-01-10T08:58:55;21.25;;;7.60;;
3653;SDS011;70277;54.302;10.064;2024-01-10T09:02:18;22.15;;;7.13;;
3653;SDS011;70277;54.302;10.064;2024-01-10T09:05:45;21.30;;;7.68;;
3653;SDS011;70277;54.302;10.064;2024-01-10T09:08:32;22.25;;;8.73;;
3653;SDS011;70277;54.302;10.064;2024-01-10T09:11:57;25.92;;;8.80;;
3653;SDS011;70277;54.302;10.064;2024-01-10T09:15:01;35.47;;;10.98;;
3653;SDS011;70277;54.302;10.064;2024-01-10T09:17:52;40.20;;;12.80;;
3653;SDS011;70277;54.302;10.064;2024-01-10T09:21:26;39.22;;;11.52;;
3653;SDS011;70277;54.302;10.064;2024-01-10T09:25:11;45.08;;;13.25;;
